sensor_id;sensor_type;location;lat;lon;timestamp;pressure;altitude;pressure_sealevel;temperature;humidity
17525;BME280;40431;52.198;9.902;2023-12-20T00:00:03;100278.22;;;6.69;100.00
17525;BME280;40431;52.198;9.902;2023-12-20T00:02:29;100291.78;;;6.67;100.00
17525;BME280;40431;52.198;9.902;2023-12-20T00:04:56;100285.56;;;6.65;100.00
17525;BME280;40431;52.198;9.902;2023-12-20T00:07:22;100290.13;;;6.63;100.00
17525;BME280;40431;52.198;9.902;2023-12-20T00:09:48;100291.97;;;6.63;100.00
17525;BME280;40431;52.198;9.902;2023-12-20T00:12:16;100286.38;;;6.67;100.00
17525;BME280;40431;52.198;9.902;2023-12-20T00:14:42;100293.66;;;6.65;100.00
17525;BME280;40431;52.198;9.902;2023-12-20T00:17:09;100298.03;;;6.68;100.00
17525;BME280;40431;52.198;9.902;2023-12-20T00:19:35;100301.66;;;6.67;100.00
17525;BME280;40431;52.198;9.902;2023-12-20T00:22:01;100300.13;;;6.61;100.00
17525;BME280;40431;52.198;9.902;2023-12-20T00:24:28;100311.56;;;6.66;100.00
17525;BME280;40431;52.198;9.902;2023-12-20T00:26:54;100297.16;;;6.67;100.00
17525;BME280;40431;52.198;9.902;2023-12-20T00:29:21;100297.16;;;6.67;100.00
17525;BME280;40431;52.198;9.902;2023-12-20T00:31:48;100299.03;;;6.65;100.00
17525;BME280;40431;52.198;9.902;2023-12-20T00:34:14;100300.91;;;6.63;100.00
17525;BME280;40431;52.198;9.902;2023-12-20T00:36:40;100305.72;;;6.57;100.00
17525;BME280;40431;52.198;9.902;2023-12-20T00:39:07;100313.13;;;6.53;100.00
17525;BME280;40431;52.198;9.902;2023-12-20T00:41:33;100315.94;;;6.50;100.00
17525;BME280;40431;52.198;9.902;2023-12-20T00:44:00;100314.50;;;6.43;100.00
17525;BME280;40431;52.198;9.902;2023-12-20T00:46:27;100308.53;;;6.36;100.00
17525;BME280;40431;52.198;9.902;2023-12-20T00:48:54;100317.53;;;6.35;100.00
17525;BME280;40431;52.198;9.902;2023-12-20T00:51:20;100319.47;;;6.33;100.00
17525;BME280;40431;52.198;9.902;2023-12-20T00:53:48;100318.88;;;6.26;100.00
17525;BME280;40431;52.198;9.902;2023-12-20T00:56:14;100318.88;;;6.26;100.00
17525;BME280;40431;52.198;9.902;2023-12-20T00:58:41;100321.59;;;6.25;100.00
17525;BME280;40431;52.198;9.902;2023-12-20T01:01:07;100311.16;;;6.18;100.00
17525;BME280;40431;52.198;9.902;2023-12-20T01:03:34;100303.16;;;6.17;100.00
17525;BME280;40431;52.198;9.902;2023-12-20T01:06:01;100305.97;;;6.14;100.00
17525;BME280;40431;52.198;9.902;2023-12-20T01:08:27;100310.75;;;6.07;100.00
17525;BME280;40431;52.198;9.902;2023-12-20T01:10:53;100301.16;;;6.01;100.00
17525;BME280;40431;52.198;9.902;2023-12-20T01:13:20;100296.84;;;5.97;100.00
17525;BME280;40431;52.198;9.902;2023-12-20T01:15:46;100306.69;;;5.97;100.00
17525;BME280;40431;52.198;9.902;2023-12-20T01:18:13;100299.72;;;5.93;100.00
17525;BME280;40431;52.198;9.902;2023-12-20T01:20:41;100298.00;;;5.92;100.00
17525;BME280;40431;52.198;9.902;2023-12-20T01:23:07;100297.19;;;5.90;100.00
17525;BME280;40431;52.198;9.902;2023-12-20T01:25:34;100302.56;;;5.90;100.00
17525;BME280;40431;52.198;9.902;2023-12-20T01:28:00;100298.41;;;5.82;100.00
17525;BME280;40431;52.198;9.902;2023-12-20T01:30:28;100303.91;;;5.79;100.00
17525;BME280;40431;52.198;9.902;2023-12-20T01:32:54;100303.91;;;5.79;100.00
17525;BME280;40431;52.198;9.902;2023-12-20T01:35:20;100302.13;;;5.80;100.00
17525;BME280;40431;52.198;9.902;2023-12-20T01:37:48;100302.22;;;5.77;100.00
17525;BME280;40431;52.198;9.902;2023-12-20T01:40:14;100291.84;;;5.69;100.00
17525;BME280;40431;52.198;9.902;2023-12-20T01:42:41;100290.88;;;5.70;100.00
17525;BME280;40431;52.198;9.902;2023-12-20T01:45:08;100297.06;;;5.72;100.00
17525;BME280;40431;52.198;9.902;2023-12-20T01:47:35;100301.53;;;5.73;100.00
17525;BME280;40431;52.198;9.902;2023-12-20T01:50:02;100306.22;;;5.68;100.00
17525;BME280;40431;52.198;9.902;2023-12-20T01:52:30;100311.72;;;5.65;100.00
17525;BME280;40431;52.198;9.902;2023-12-20T01:54:57;100312.81;;;5.61;100.00
17525;BME280;40431;52.198;9.902;2023-12-20T01:57:28;100315.25;;;5.67;100.00
17525;BME280;40431;52.198;9.902;2023-12-20T01:59:53;100310.94;;;5.63;100.00
17525;BME280;40431;52.198;9.902;2023-12-20T02:02:20;100303.88;;;5.60;100.00
17525;BME280;40431;52.198;9.902;2023-12-20T02:04:46;100308.25;;;5.63;100.00
17525;BME280;40431;52.198;9.902;2023-12-20T02:07:13;100310.25;;;5.58;100.00
17525;BME280;40431;52.198;9.902;2023-12-20T02:09:40;100317.25;;;5.62;100.00
17525;BME280;40431;52.198;9.902;2023-12-20T02:12:08;100320.53;;;5.68;100.00
17525;BME280;40431;52.198;9.902;2023-12-20T02:14:34;100320.63;;;5.67;100.00
17525;BME280;40431;52.198;9.902;2023-12-20T02:17:00;100318.78;;;5.67;100.00
17525;BME280;40431;52.198;9.902;2023-12-20T02:19:26;100321.44;;;5.69;100.00
17525;BME280;40431;52.198;9.902;2023-12-20T02:22:06;100322.50;;;5.65;100.00
17525;BME280;40431;52.198;9.902;2023-12-20T02:24:32;100321.47;;;5.67;100.00
17525;BME280;40431;52.198;9.902;2023-12-20T02:26:58;100317.84;;;5.68;100.00
17525;BME280;40431;52.198;9.902;2023-12-20T02:29:25;100320.69;;;5.65;100.00
17525;BME280;40431;52.198;9.902;2023-12-20T02:31:51;100315.31;;;5.65;100.00
17525;BME280;40431;52.198;9.902;2023-12-20T02:34:18;100298.50;;;5.60;100.00
17525;BME280;40431;52.198;9.902;2023-12-20T02:36:44;100301.97;;;5.62;100.00
17525;BME280;40431;52.198;9.902;2023-12-20T02:39:13;100292.25;;;5.60;100.00
17525;BME280;40431;52.198;9.902;2023-12-20T02:41:40;100289.91;;;5.52;100.00
17525;BME280;40431;52.198;9.902;2023-12-20T02:44:06;100280.88;;;5.53;100.00
17525;BME280;40431;52.198;9.902;2023-12-20T02:46:32;100289.00;;;5.51;100.00
17525;BME280;40431;52.198;9.902;2023-12-20T02:48:59;100291.03;;;5.46;100.00
17525;BME280;40431;52.198;9.902;2023-12-20T02:51:25;100292.94;;;5.44;100.00
17525;BME280;40431;52.198;9.902;2023-12-20T02:53:51;100288.41;;;5.45;100.00
17525;BME280;40431;52.198;9.902;2023-12-20T02:56:19;100277.72;;;5.43;100.00
17525;BME280;40431;52.198;9.902;2023-12-20T02:58:45;100274.44;;;5.37;100.00
17525;BME280;40431;52.198;9.902;2023-12-20T03:01:11;100262.94;;;5.33;100.00
17525;BME280;40431;52.198;9.902;2023-12-20T03:03:38;100270.06;;;5.34;100.00
17525;BME280;40431;52.198;9.902;2023-12-20T03:06:04;100272.75;;;5.34;100.00
17525;BME280;40431;52.198;9.902;2023-12-20T03:08:30;100271.06;;;5.31;100.00
17525;BME280;40431;52.198;9.902;2023-12-20T03:10:59;100271.88;;;5.33;100.00
17525;BME280;40431;52.198;9.902;2023-12-20T03:13:26;100270.06;;;5.34;100.00
17525;BME280;40431;52.198;9.902;2023-12-20T03:15:53;100266.44;;;5.35;100.00
17525;BME280;40431;52.198;9.902;2023-12-20T03:18:20;100256.09;;;5.26;100.00
17525;BME280;40431;52.198;9.902;2023-12-20T03:20:46;100259.78;;;5.23;100.00
17525;BME280;40431;52.198;9.902;2023-12-20T03:23:15;100257.31;;;5.18;100.00
17525;BME280;40431;52.198;9.902;2023-12-20T03:25:41;100252.59;;;5.24;100.00
17525;BME280;40431;52.198;9.902;2023-12-20T03:28:07;100247.34;;;5.21;100.00
17525;BME280;40431;52.198;9.902;2023-12-20T03:30:35;100252.88;;;5.17;100.00
17525;BME280;40431;52.198;9.902;2023-12-20T03:33:01;100247.50;;;5.17;100.00
17525;BME280;40431;52.198;9.902;2023-12-20T03:35:28;100242.19;;;5.16;100.00
17525;BME280;40431;52.198;9.902;2023-12-20T03:37:54;100236.22;;;5.09;100.00
17525;BME280;40431;52.198;9.902;2023-12-20T03:40:22;100221.81;;;5.10;100.00
17525;BME280;40431;52.198;9.902;2023-12-20T03:42:48;100219.13;;;5.10;100.00
17525;BME280;40431;52.198;9.902;2023-12-20T03:45:14;100208.38;;;5.10;100.00
17525;BME280;40431;52.198;9.902;2023-12-20T03:47:42;100220.09;;;5.09;100.00
17525;BME280;40431;52.198;9.902;2023-12-20T03:50:09;100225.56;;;5.06;100.00
17525;BME280;40431;52.198;9.902;2023-12-20T03:52:35;100217.41;;;5.09;100.00
17525;BME280;40431;52.198;9.902;2023-12-20T03:55:01;100221.09;;;5.07;100.00
17525;BME280;40431;52.198;9.902;2023-12-20T03:57:28;100233.44;;;5.11;100.00
17525;BME280;40431;52.198;9.902;2023-12-20T03:59:54;100221.69;;;5.13;100.00
17525;BME280;40431;52.198;9.902;2023-12-20T04:02:20;100222.78;;;5.09;100.00
17525;BME280;40431;52.198;9.902;2023-12-20T04:04:48;100225.16;;;5.15;100.00
17525;BME280;40431;52.198;9.902;2023-12-20T04:07:14;100227.00;;;5.15;100.00
17525;BME280;40431;52.198;9.902;2023-12-20T04:09:41;100222.47;;;5.15;100.00
17525;BME280;40431;52.198;9.902;2023-12-20T04:12:07;100226.00;;;5.17;100.00
17525;BME280;40431;52.198;9.902;2023-12-20T04:14:34;100224.38;;;5.13;100.00
17525;BME280;40431;52.198;9.902;2023-12-20T04:17:00;100224.09;;;5.19;100.00
17525;BME280;40431;52.198;9.902;2023-12-20T04:19:26;100220.47;;;5.21;100.00
17525;BME280;40431;52.198;9.902;2023-12-20T04:21:54;100216.84;;;5.22;100.00
17525;BME280;40431;52.198;9.902;2023-12-20T04:24:19;100212.47;;;5.19;100.00
17525;BME280;40431;52.198;9.902;2023-12-20T04:26:46;100204.41;;;5.19;100.00
17525;BME280;40431;52.198;9.902;2023-12-20T04:29:12;100205.94;;;5.25;100.00
17525;BME280;40431;52.198;9.902;2023-12-20T04:31:38;100210.31;;;5.27;100.00
17525;BME280;40431;52.198;9.902;2023-12-20T04:34:05;100212.81;;;5.32;100.00
17525;BME280;40431;52.198;9.902;2023-12-20T04:36:31;100214.41;;;5.36;100.00
17525;BME280;40431;52.198;9.902;2023-12-20T04:38:58;100215.28;;;5.37;100.00
17525;BME280;40431;52.198;9.902;2023-12-20T04:41:25;100211.66;;;5.38;100.00
17525;BME280;40431;52.198;9.902;2023-12-20T04:43:52;100204.59;;;5.35;100.00
17525;BME280;40431;52.198;9.902;2023-12-20T04:46:19;100215.13;;;5.40;100.00
17525;BME280;40431;52.198;9.902;2023-12-20T04:48:45;100209.72;;;5.41;100.00
17525;BME280;40431;52.198;9.902;2023-12-20T04:51:11;100205.94;;;5.45;100.00
17525;BME280;40431;52.198;9.902;2023-12-20T04:53:38;100204.84;;;5.49;100.00
17525;BME280;40431;52.198;9.902;2023-12-20T04:56:06;100195.88;;;5.49;100.00
17525;BME280;40431;52.198;9.902;2023-12-20T04:58:32;100198.81;;;5.44;100.00
17525;BME280;40431;52.198;9.902;2023-12-20T05:00:58;100197.88;;;5.45;100.00
17525;BME280;40431;52.198;9.902;2023-12-20T05:03:25;100194.28;;;5.45;100.00
17525;BME280;40431;52.198;9.902;2023-12-20T05:05:51;100199.91;;;5.40;100.00
17525;BME280;40431;52.198;9.902;2023-12-20T05:08:17;100199.00;;;5.40;100.00
17525;BME280;40431;52.198;9.902;2023-12-20T05:10:44;100209.63;;;5.43;100.00
17525;BME280;40431;52.198;9.902;2023-12-20T05:13:11;100201.66;;;5.41;100.00
17525;BME280;40431;52.198;9.902;2023-12-20T05:15:38;100198.00;;;5.42;100.00
17525;BME280;40431;52.198;9.902;2023-12-20T05:18:04;100202.59;;;5.40;100.00
17525;BME280;40431;52.198;9.902;2023-12-20T05:20:30;100196.13;;;5.44;100.00
17525;BME280;40431;52.198;9.902;2023-12-20T05:22:57;100187.25;;;5.42;100.00
17525;BME280;40431;52.198;9.902;2023-12-20T05:25:23;100191.94;;;5.37;100.00
17525;BME280;40431;52.198;9.902;2023-12-20T05:27:50;100198.88;;;5.43;100.00
17525;BME280;40431;52.198;9.902;2023-12-20T05:30:17;100196.13;;;5.44;100.00
17525;BME280;40431;52.198;9.902;2023-12-20T05:32:44;100194.22;;;5.46;100.00
17525;BME280;40431;52.198;9.902;2023-12-20T05:35:10;100206.72;;;5.47;100.00
17525;BME280;40431;52.198;9.902;2023-12-20T05:37:36;100195.03;;;5.48;100.00
17525;BME280;40431;52.198;9.902;2023-12-20T05:40:03;100185.81;;;5.54;100.00
17525;BME280;40431;52.198;9.902;2023-12-20T05:42:30;100185.81;;;5.54;100.00
17525;BME280;40431;52.198;9.902;2023-12-20T05:44:56;100192.94;;;5.55;100.00
17525;BME280;40431;52.198;9.902;2023-12-20T05:47:24;100172.34;;;5.54;100.00
17525;BME280;40431;52.198;9.902;2023-12-20T05:49:50;100183.19;;;5.52;100.00
17525;BME280;40431;52.198;9.902;2023-12-20T05:52:16;100183.19;;;5.52;100.00
17525;BME280;40431;52.198;9.902;2023-12-20T05:54:43;100192.06;;;5.55;100.00
17525;BME280;40431;52.198;9.902;2023-12-20T05:57:09;100192.06;;;5.55;100.00
17525;BME280;40431;52.198;9.902;2023-12-20T05:59:35;100188.72;;;5.49;100.00
17525;BME280;40431;52.198;9.902;2023-12-20T06:02:03;100181.59;;;5.48;100.00
17525;BME280;40431;52.198;9.902;2023-12-20T06:04:30;100186.22;;;5.45;100.00
17525;BME280;40431;52.198;9.902;2023-12-20T06:06:57;100181.94;;;5.41;100.00
17525;BME280;40431;52.198;9.902;2023-12-20T06:09:24;100194.22;;;5.46;100.00
17525;BME280;40431;52.198;9.902;2023-12-20T06:11:51;100195.25;;;5.44;100.00
17525;BME280;40431;52.198;9.902;2023-12-20T06:14:17;100198.88;;;5.43;100.00
17525;BME280;40431;52.198;9.902;2023-12-20T06:16:44;100189.13;;;5.40;100.00
17525;BME280;40431;52.198;9.902;2023-12-20T06:19:10;100185.63;;;5.38;100.00
17525;BME280;40431;52.198;9.902;2023-12-20T06:21:38;100190.31;;;5.34;100.00
17525;BME280;40431;52.198;9.902;2023-12-20T06:24:05;100184.97;;;5.33;100.00
17525;BME280;40431;52.198;9.902;2023-12-20T06:26:31;100185.19;;;5.28;100.00
17525;BME280;40431;52.198;9.902;2023-12-20T06:28:57;100179.88;;;5.27;100.00
17525;BME280;40431;52.198;9.902;2023-12-20T06:31:23;100173.28;;;5.34;100.00
17525;BME280;40431;52.198;9.902;2023-12-20T06:33:50;100179.53;;;5.34;100.00
17525;BME280;40431;52.198;9.902;2023-12-20T06:36:22;100191.00;;;5.38;100.00
17525;BME280;40431;52.198;9.902;2023-12-20T06:38:50;100175.63;;;5.42;100.00
17525;BME280;40431;52.198;9.902;2023-12-20T06:41:16;100184.50;;;5.44;100.00
17525;BME280;40431;52.198;9.902;2023-12-20T06:43:43;100196.13;;;5.44;100.00
17525;BME280;40431;52.198;9.902;2023-12-20T06:46:09;100184.69;;;5.39;100.00
17525;BME280;40431;52.198;9.902;2023-12-20T06:48:36;100168.72;;;5.36;100.00
17525;BME280;40431;52.198;9.902;2023-12-20T06:51:03;100186.03;;;5.29;100.00
17525;BME280;40431;52.198;9.902;2023-12-20T06:53:29;100179.97;;;5.25;100.00
17525;BME280;40431;52.198;9.902;2023-12-20T06:55:57;100172.94;;;5.21;100.00
17525;BME280;40431;52.198;9.902;2023-12-20T06:58:23;100178.41;;;5.19;100.00
17525;BME280;40431;52.198;9.902;2023-12-20T07:00:50;100175.59;;;5.23;100.00
17525;BME280;40431;52.198;9.902;2023-12-20T07:03:17;100184.66;;;5.20;100.00
17525;BME280;40431;52.198;9.902;2023-12-20T07:05:43;100170.22;;;5.23;100.00
17525;BME280;40431;52.198;9.902;2023-12-20T07:08:09;100173.03;;;5.19;100.00
17525;BME280;40431;52.198;9.902;2023-12-20T07:10:38;100162.28;;;5.19;100.00
17525;BME280;40431;52.198;9.902;2023-12-20T07:13:06;100160.53;;;5.18;100.00
17525;BME280;40431;52.198;9.902;2023-12-20T07:15:33;100165.94;;;5.18;100.00
17525;BME280;40431;52.198;9.902;2023-12-20T07:17:59;100164.03;;;5.21;100.00
17525;BME280;40431;52.198;9.902;2023-12-20T07:20:26;100162.06;;;5.24;100.00
17525;BME280;40431;52.198;9.902;2023-12-20T07:22:52;100166.28;;;5.30;100.00
17525;BME280;40431;52.198;9.902;2023-12-20T07:25:18;100167.31;;;5.27;100.00
17525;BME280;40431;52.198;9.902;2023-12-20T07:27:45;100170.06;;;5.26;100.00
17525;BME280;40431;52.198;9.902;2023-12-20T07:30:13;100168.03;;;5.31;100.00
17525;BME280;40431;52.198;9.902;2023-12-20T07:32:40;100171.66;;;5.30;100.00
17525;BME280;40431;52.198;9.902;2023-12-20T07:35:06;100163.94;;;5.22;100.00
17525;BME280;40431;52.198;9.902;2023-12-20T07:37:33;100172.09;;;5.21;100.00
17525;BME280;40431;52.198;9.902;2023-12-20T07:39:59;100173.69;;;5.25;100.00
17525;BME280;40431;52.198;9.902;2023-12-20T07:42:25;100171.81;;;5.27;100.00
17525;BME280;40431;52.198;9.902;2023-12-20T07:44:52;100173.44;;;5.31;100.00
17525;BME280;40431;52.198;9.902;2023-12-20T07:47:20;100164.44;;;5.32;100.00
17525;BME280;40431;52.198;9.902;2023-12-20T07:49:47;100168.91;;;5.31;100.00
17525;BME280;40431;52.198;9.902;2023-12-20T07:52:13;100176.63;;;5.39;100.00
17525;BME280;40431;52.198;9.902;2023-12-20T07:54:40;100167.47;;;5.43;100.00
17525;BME280;40431;52.198;9.902;2023-12-20T07:57:06;100173.66;;;5.45;100.00
17525;BME280;40431;52.198;9.902;2023-12-20T07:59:32;100173.78;;;5.42;100.00
17525;BME280;40431;52.198;9.902;2023-12-20T08:01:59;100172.84;;;5.43;100.00
17525;BME280;40431;52.198;9.902;2023-12-20T08:04:26;100172.84;;;5.43;100.00
17525;BME280;40431;52.198;9.902;2023-12-20T08:06:53;100171.09;;;5.42;100.00
17525;BME280;40431;52.198;9.902;2023-12-20T08:09:19;100180.84;;;5.45;100.00
17525;BME280;40431;52.198;9.902;2023-12-20T08:11:46;100162.91;;;5.45;100.00
17525;BME280;40431;52.198;9.902;2023-12-20T08:14:12;100164.59;;;5.48;100.00
17525;BME280;40431;52.198;9.902;2023-12-20T08:16:38;100170.69;;;5.51;100.00
17525;BME280;40431;52.198;9.902;2023-12-20T08:19:05;100168.00;;;5.51;100.00
17525;BME280;40431;52.198;9.902;2023-12-20T08:21:33;100176.88;;;5.54;100.00
17525;BME280;40431;52.198;9.902;2023-12-20T08:23:59;100181.31;;;5.55;100.00
17525;BME280;40431;52.198;9.902;2023-12-20T08:26:26;100173.28;;;5.53;100.00
17525;BME280;40431;52.198;9.902;2023-12-20T08:28:52;100174.19;;;5.54;100.00
17525;BME280;40431;52.198;9.902;2023-12-20T08:31:19;100175.78;;;5.58;100.00
17525;BME280;40431;52.198;9.902;2023-12-20T08:33:46;100165.84;;;5.60;100.00
17525;BME280;40431;52.198;9.902;2023-12-20T08:36:13;100169.41;;;5.60;100.00
17525;BME280;40431;52.198;9.902;2023-12-20T08:38:41;100161.41;;;5.59;100.00
17525;BME280;40431;52.198;9.902;2023-12-20T08:41:07;100158.03;;;5.54;100.00
17525;BME280;40431;52.198;9.902;2023-12-20T08:43:34;100162.34;;;5.58;100.00
17525;BME280;40431;52.198;9.902;2023-12-20T08:46:01;100155.72;;;5.65;100.00
17525;BME280;40431;52.198;9.902;2023-12-20T08:48:27;100145.84;;;5.65;100.00
17525;BME280;40431;52.198;9.902;2023-12-20T08:50:54;100134.19;;;5.65;100.00
17525;BME280;40431;52.198;9.902;2023-12-20T08:53:20;100132.31;;;5.67;100.00
17525;BME280;40431;52.198;9.902;2023-12-20T08:55:48;100129.63;;;5.67;100.00
17525;BME280;40431;52.198;9.902;2023-12-20T08:58:14;100122.38;;;5.69;100.00
17525;BME280;40431;52.198;9.902;2023-12-20T09:00:40;100129.34;;;5.73;100.00
17525;BME280;40431;52.198;9.902;2023-12-20T09:03:07;100129.09;;;5.78;100.00
17525;BME280;40431;52.198;9.902;2023-12-20T09:05:33;100126.34;;;5.79;100.00
17525;BME280;40431;52.198;9.902;2023-12-20T09:07:59;100122.72;;;5.80;100.00
17525;BME280;40431;52.198;9.902;2023-12-20T09:10:26;100129.97;;;5.78;100.00
17525;BME280;40431;52.198;9.902;2023-12-20T09:12:53;100126.22;;;5.82;100.00
17525;BME280;40431;52.198;9.902;2023-12-20T09:15:21;100126.34;;;5.79;100.00
17525;BME280;40431;52.198;9.902;2023-12-20T09:17:47;100122.88;;;5.77;100.00
17525;BME280;40431;52.198;9.902;2023-12-20T09:20:14;100111.22;;;5.77;100.00
17525;BME280;40431;52.198;9.902;2023-12-20T09:22:40;100116.31;;;5.83;100.00
17525;BME280;40431;52.198;9.902;2023-12-20T09:25:07;100094.13;;;5.78;100.00
17525;BME280;40431;52.198;9.902;2023-12-20T09:27:33;100092.94;;;5.83;100.00
17525;BME280;40431;52.198;9.902;2023-12-20T09:30:01;100088.53;;;5.82;100.00
17525;BME280;40431;52.198;9.902;2023-12-20T09:32:29;100089.31;;;5.84;100.00
17525;BME280;40431;52.198;9.902;2023-12-20T09:34:55;100086.78;;;5.81;100.00
17525;BME280;40431;52.198;9.902;2023-12-20T09:37:22;100102.78;;;5.84;100.00
17525;BME280;40431;52.198;9.902;2023-12-20T09:39:48;100082.94;;;5.87;100.00
17525;BME280;40431;52.198;9.902;2023-12-20T09:42:18;100079.22;;;5.90;100.00
17525;BME280;40431;52.198;9.902;2023-12-20T09:44:47;100069.38;;;5.89;100.00
17525;BME280;40431;52.198;9.902;2023-12-20T09:47:15;100064.81;;;5.91;100.00
17525;BME280;40431;52.198;9.902;2023-12-20T09:49:46;100079.72;;;5.98;100.00
17525;BME280;40431;52.198;9.902;2023-12-20T09:52:12;100075.16;;;6.00;100.00
17525;BME280;40431;52.198;9.902;2023-12-20T09:54:40;100070.47;;;6.04;100.00
17525;BME280;40431;52.198;9.902;2023-12-20T09:57:07;100072.38;;;6.01;100.00
17525;BME280;40431;52.198;9.902;2023-12-20T09:59:33;100056.00;;;6.06;100.00
17525;BME280;40431;52.198;9.902;2023-12-20T10:02:01;100072.66;;;6.14;100.00
17525;BME280;40431;52.198;9.902;2023-12-20T10:04:31;100058.22;;;6.15;100.00
17525;BME280;40431;52.198;9.902;2023-12-20T10:07:02;100056.34;;;6.17;100.00
17525;BME280;40431;52.198;9.902;2023-12-20T10:09:31;100057.91;;;6.22;100.00
17525;BME280;40431;52.198;9.902;2023-12-20T10:11:57;100054.44;;;6.20;100.00
17525;BME280;40431;52.198;9.902;2023-12-20T10:14:24;100041.94;;;6.18;100.00
17525;BME280;40431;52.198;9.902;2023-12-20T10:16:50;100056.16;;;6.21;100.00
17525;BME280;40431;52.198;9.902;2023-12-20T10:19:17;100047.94;;;6.24;100.00
17525;BME280;40431;52.198;9.902;2023-12-20T10:21:45;100041.59;;;6.25;100.00
17525;BME280;40431;52.198;9.902;2023-12-20T10:24:16;100040.00;;;6.21;100.00
17525;BME280;40431;52.198;9.902;2023-12-20T10:26:43;100032.03;;;6.19;100.00
17525;BME280;40431;52.198;9.902;2023-12-20T10:29:09;100046.22;;;6.23;100.00
17525;BME280;40431;52.198;9.902;2023-12-20T10:31:36;100040.00;;;6.21;100.00
17525;BME280;40431;52.198;9.902;2023-12-20T10:34:04;100024.88;;;6.18;100.00
17525;BME280;40431;52.198;9.902;2023-12-20T10:36:31;100021.25;;;6.19;100.00
17525;BME280;40431;52.198;9.902;2023-12-20T10:38:59;100019.44;;;6.20;100.00
17525;BME280;40431;52.198;9.902;2023-12-20T10:41:27;100013.63;;;6.27;100.00
17525;BME280;40431;52.198;9.902;2023-12-20T10:43:59;100025.13;;;6.31;100.00
17525;BME280;40431;52.198;9.902;2023-12-20T10:46:26;100037.31;;;6.38;100.00
17525;BME280;40431;52.198;9.902;2023-12-20T10:48:53;100027.25;;;6.42;100.00
17525;BME280;40431;52.198;9.902;2023-12-20T10:51:21;100035.50;;;6.39;100.00
17525;BME280;40431;52.198;9.902;2023-12-20T10:53:48;100031.06;;;6.38;100.00
17525;BME280;40431;52.198;9.902;2023-12-20T10:56:17;100026.88;;;6.32;100.00
17525;BME280;40431;52.198;9.902;2023-12-20T10:58:45;100019.75;;;6.31;100.00
17525;BME280;40431;52.198;9.902;2023-12-20T11:01:12;100017.88;;;6.33;100.00
17525;BME280;40431;52.198;9.902;2023-12-20T11:03:44;100015.84;;;6.37;100.00
17525;BME280;40431;52.198;9.902;2023-12-20T11:06:19;100014.06;;;6.37;100.00
17525;BME280;40431;52.198;9.902;2023-12-20T11:08:52;100008.81;;;6.34;100.00
17525;BME280;40431;52.198;9.902;2023-12-20T11:11:26;100014.91;;;6.38;100.00
17525;BME280;40431;52.198;9.902;2023-12-20T11:13:56;100014.38;;;6.31;100.00
17525;BME280;40431;52.198;9.902;2023-12-20T11:16:23;100012.22;;;6.20;100.00
17525;BME280;40431;52.198;9.902;2023-12-20T11:18:50;100012.41;;;6.17;100.00
17525;BME280;40431;52.198;9.902;2023-12-20T11:21:17;100025.22;;;6.12;100.00
17525;BME280;40431;52.198;9.902;2023-12-20T11:23:44;100019.84;;;6.12;100.00
17525;BME280;40431;52.198;9.902;2023-12-20T11:26:10;100001.22;;;6.07;100.00
17525;BME280;40431;52.198;9.902;2023-12-20T11:28:38;100009.38;;;6.06;100.00
17525;BME280;40431;52.198;9.902;2023-12-20T11:31:05;99994.41;;;6.00;100.00
17525;BME280;40431;52.198;9.902;2023-12-20T11:33:36;100013.19;;;6.01;100.00
17525;BME280;40431;52.198;9.902;2023-12-20T11:36:06;100001.47;;;6.03;100.00
17525;BME280;40431;52.198;9.902;2023-12-20T11:38:38;100007.72;;;6.03;100.00
17525;BME280;40431;52.198;9.902;2023-12-20T11:41:05;100017.84;;;5.98;100.00
17525;BME280;40431;52.198;9.902;2023-12-20T11:43:35;100007.38;;;5.92;100.00
17525;BME280;40431;52.198;9.902;2023-12-20T11:46:07;99998.31;;;5.93;100.00
17525;BME280;40431;52.198;9.902;2023-12-20T11:48:35;100000.22;;;5.91;100.00
17525;BME280;40431;52.198;9.902;2023-12-20T11:51:02;99981.22;;;5.94;100.00
17525;BME280;40431;52.198;9.902;2023-12-20T11:53:29;99987.41;;;5.96;100.00
17525;BME280;40431;52.198;9.902;2023-12-20T11:55:56;99990.91;;;5.98;100.00
17525;BME280;40431;52.198;9.902;2023-12-20T11:58:22;99982.72;;;6.01;100.00
17525;BME280;40431;52.198;9.902;2023-12-20T12:00:49;99991.81;;;5.98;100.00
17525;BME280;40431;52.198;9.902;2023-12-20T12:03:17;100002.41;;;6.01;100.00
17525;BME280;40431;52.198;9.902;2023-12-20T12:05:46;99993.38;;;6.03;100.00
17525;BME280;40431;52.198;9.902;2023-12-20T12:08:13;99999.00;;;5.98;100.00
17525;BME280;40431;52.198;9.902;2023-12-20T12:10:39;100054.63;;;5.97;100.00
17525;BME280;40431;52.198;9.902;2023-12-20T12:13:06;100035.31;;;5.70;100.00
17525;BME280;40431;52.198;9.902;2023-12-20T12:15:32;100029.13;;;5.31;100.00
17525;BME280;40431;52.198;9.902;2023-12-20T12:17:59;100012.56;;;5.03;100.00
17525;BME280;40431;52.198;9.902;2023-12-20T12:20:26;100012.00;;;4.75;100.00
17525;BME280;40431;52.198;9.902;2023-12-20T12:22:59;100014.69;;;4.56;100.00
17525;BME280;40431;52.198;9.902;2023-12-20T12:25:26;100017.56;;;4.51;100.00
17525;BME280;40431;52.198;9.902;2023-12-20T12:27:52;100013.53;;;4.41;100.00
17525;BME280;40431;52.198;9.902;2023-12-20T12:30:19;100007.47;;;4.36;100.00
17525;BME280;40431;52.198;9.902;2023-12-20T12:32:45;100014.94;;;4.29;100.00
17525;BME280;40431;52.198;9.902;2023-12-20T12:35:11;100006.34;;;4.21;100.00
17525;BME280;40431;52.198;9.902;2023-12-20T12:37:40;100010.19;;;4.15;100.00
17525;BME280;40431;52.198;9.902;2023-12-20T12:40:09;100000.25;;;4.17;100.00
17525;BME280;40431;52.198;9.902;2023-12-20T12:42:36;99983.34;;;4.15;100.00
17525;BME280;40431;52.198;9.902;2023-12-20T12:45:03;99992.69;;;4.27;100.00
17525;BME280;40431;52.198;9.902;2023-12-20T12:47:30;100002.06;;;4.38;100.00